sensor_id;sensor_type;location;lat;lon;timestamp;temperature;humidity
5899;DHT22;2975;50.956;6.962;2022-09-17T00:01:03;10.90;99.90
5899;DHT22;2975;50.956;6.962;2022-09-17T00:03:30;10.90;99.90
5899;DHT22;2975;50.956;6.962;2022-09-17T00:06:06;10.90;99.90
5899;DHT22;2975;50.956;6.962;2022-09-17T00:08:33;10.90;99.90
5899;DHT22;2975;50.956;6.962;2022-09-17T00:11:10;11.00;99.90
5899;DHT22;2975;50.956;6.962;2022-09-17T00:13:36;11.00;99.90
5899;DHT22;2975;50.956;6.962;2022-09-17T00:16:02;11.00;99.90
5899;DHT22;2975;50.956;6.962;2022-09-17T00:18:28;10.90;99.90
5899;DHT22;2975;50.956;6.962;2022-09-17T00:20:53;10.90;99.90
5899;DHT22;2975;50.956;6.962;2022-09-17T00:23:19;10.90;99.90
5899;DHT22;2975;50.956;6.962;2022-09-17T00:25:45;10.90;99.90
5899;DHT22;2975;50.956;6.962;2022-09-17T00:28:12;11.00;99.90
5899;DHT22;2975;50.956;6.962;2022-09-17T00:30:43;10.90;99.90
5899;DHT22;2975;50.956;6.962;2022-09-17T00:33:14;11.00;99.90
5899;DHT22;2975;50.956;6.962;2022-09-17T00:35:40;10.90;99.90
5899;DHT22;2975;50.956;6.962;2022-09-17T00:38:06;10.90;99.90
5899;DHT22;2975;50.956;6.962;2022-09-17T00:40:31;10.90;99.90
5899;DHT22;2975;50.956;6.962;2022-09-17T00:42:57;10.90;99.90
5899;DHT22;2975;50.956;6.962;2022-09-17T00:45:23;11.00;99.90
5899;DHT22;2975;50.956;6.962;2022-09-17T00:48:00;11.00;99.90
5899;DHT22;2975;50.956;6.962;2022-09-17T00:53:03;11.00;99.90
5899;DHT22;2975;50.956;6.962;2022-09-17T00:55:37;11.00;99.90
5899;DHT22;2975;50.956;6.962;2022-09-17T00:58:06;11.00;99.90
5899;DHT22;2975;50.956;6.962;2022-09-17T01:00:32;11.00;99.90
5899;DHT22;2975;50.956;6.962;2022-09-17T01:02:58;10.90;99.90
5899;DHT22;2975;50.956;6.962;2022-09-17T01:05:46;10.90;99.90
5899;DHT22;2975;50.956;6.962;2022-09-17T01:17:09;11.00;99.90
5899;DHT22;2975;50.956;6.962;2022-09-17T01:25:00;11.00;99.90
5899;DHT22;2975;50.956;6.962;2022-09-17T01:36:10;11.00;99.90
5899;DHT22;2975;50.956;6.962;2022-09-17T01:39:05;11.10;99.90
5899;DHT22;2975;50.956;6.962;2022-09-17T01:41:50;11.00;99.90
5899;DHT22;2975;50.956;6.962;2022-09-17T01:44:55;11.00;99.90
5899;DHT22;2975;50.956;6.962;2022-09-17T01:47:30;11.00;99.90
5899;DHT22;2975;50.956;6.962;2022-09-17T01:50:02;11.10;99.90
5899;DHT22;2975;50.956;6.962;2022-09-17T01:52:31;11.10;99.90
5899;DHT22;2975;50.956;6.962;2022-09-17T01:55:02;11.00;99.90
5899;DHT22;2975;50.956;6.962;2022-09-17T02:00:11;11.00;99.90
5899;DHT22;2975;50.956;6.962;2022-09-17T02:03:06;10.90;99.90
5899;DHT22;2975;50.956;6.962;2022-09-17T02:05:40;10.90;99.90
5899;DHT22;2975;50.956;6.962;2022-09-17T02:08:12;10.80;99.90
5899;DHT22;2975;50.956;6.962;2022-09-17T02:10:44;10.80;99.90
5899;DHT22;2975;50.956;6.962;2022-09-17T02:13:26;10.80;99.90
5899;DHT22;2975;50.956;6.962;2022-09-17T02:16:04;10.80;99.90
5899;DHT22;2975;50.956;6.962;2022-09-17T02:21:44;10.70;99.90
5899;DHT22;2975;50.956;6.962;2022-09-17T02:24:15;10.70;99.90
5899;DHT22;2975;50.956;6.962;2022-09-17T02:26:50;10.60;99.90
5899;DHT22;2975;50.956;6.962;2022-09-17T02:29:28;10.50;99.90
5899;DHT22;2975;50.956;6.962;2022-09-17T02:31:55;10.50;99.90
5899;DHT22;2975;50.956;6.962;2022-09-17T02:34:21;10.40;99.90
5899;DHT22;2975;50.956;6.962;2022-09-17T02:36:50;10.40;99.90
5899;DHT22;2975;50.956;6.962;2022-09-17T02:39:15;10.40;99.90
5899;DHT22;2975;50.956;6.962;2022-09-17T03:00:11;10.80;99.90
5899;DHT22;2975;50.956;6.962;2022-09-17T03:03:04;10.80;99.90
5899;DHT22;2975;50.956;6.962;2022-09-17T03:05:28;10.80;99.90
5899;DHT22;2975;50.956;6.962;2022-09-17T03:07:55;10.80;99.90
5899;DHT22;2975;50.956;6.962;2022-09-17T03:10:22;10.90;99.90
5899;DHT22;2975;50.956;6.962;2022-09-17T03:12:48;10.90;99.90
5899;DHT22;2975;50.956;6.962;2022-09-17T03:15:13;10.90;99.90
5899;DHT22;2975;50.956;6.962;2022-09-17T03:17:40;10.90;99.90
5899;DHT22;2975;50.956;6.962;2022-09-17T03:20:06;10.90;99.90
5899;DHT22;2975;50.956;6.962;2022-09-17T03:22:31;10.90;99.90
5899;DHT22;2975;50.956;6.962;2022-09-17T03:24:57;10.90;99.90
5899;DHT22;2975;50.956;6.962;2022-09-17T03:27:23;10.90;99.90
5899;DHT22;2975;50.956;6.962;2022-09-17T03:29:48;10.90;99.90
5899;DHT22;2975;50.956;6.962;2022-09-17T03:32:14;10.90;99.90
5899;DHT22;2975;50.956;6.962;2022-09-17T03:34:40;10.90;99.90
5899;DHT22;2975;50.956;6.962;2022-09-17T03:37:05;10.90;99.90
5899;DHT22;2975;50.956;6.962;2022-09-17T03:39:31;10.90;99.90
5899;DHT22;2975;50.956;6.962;2022-09-17T03:41:56;10.90;99.90
5899;DHT22;2975;50.956;6.962;2022-09-17T03:44:22;10.90;99.90
5899;DHT22;2975;50.956;6.962;2022-09-17T03:46:48;10.90;99.90
5899;DHT22;2975;50.956;6.962;2022-09-17T03:49:14;10.90;99.90
5899;DHT22;2975;50.956;6.962;2022-09-17T03:51:40;11.00;99.90
5899;DHT22;2975;50.956;6.962;2022-09-17T03:54:05;11.00;99.90
5899;DHT22;2975;50.956;6.962;2022-09-17T03:56:31;11.00;99.90
5899;DHT22;2975;50.956;6.962;2022-09-17T03:58:58;11.00;99.90
5899;DHT22;2975;50.956;6.962;2022-09-17T04:01:24;11.00;99.90
5899;DHT22;2975;50.956;6.962;2022-09-17T04:03:49;11.00;99.90
5899;DHT22;2975;50.956;6.962;2022-09-17T04:06:15;11.00;99.90
5899;DHT22;2975;50.956;6.962;2022-09-17T04:08:41;11.00;99.90
5899;DHT22;2975;50.956;6.962;2022-09-17T04:11:08;11.00;99.90
5899;DHT22;2975;50.956;6.962;2022-09-17T04:13:34;11.00;99.90
5899;DHT22;2975;50.956;6.962;2022-09-17T04:16:00;11.00;99.90
5899;DHT22;2975;50.956;6.962;2022-09-17T04:18:26;11.00;99.90
5899;DHT22;2975;50.956;6.962;2022-09-17T04:20:51;11.00;99.90
5899;DHT22;2975;50.956;6.962;2022-09-17T04:23:17;11.10;99.90
5899;DHT22;2975;50.956;6.962;2022-09-17T04:25:43;11.00;99.90
5899;DHT22;2975;50.956;6.962;2022-09-17T04:28:09;11.10;99.90
5899;DHT22;2975;50.956;6.962;2022-09-17T04:30:35;11.10;99.90
5899;DHT22;2975;50.956;6.962;2022-09-17T04:33:02;11.00;99.90
5899;DHT22;2975;50.956;6.962;2022-09-17T04:35:27;11.00;99.90
5899;DHT22;2975;50.956;6.962;2022-09-17T04:37:54;11.00;99.90
5899;DHT22;2975;50.956;6.962;2022-09-17T04:40:21;11.00;99.90
5899;DHT22;2975;50.956;6.962;2022-09-17T04:42:47;11.00;99.90
5899;DHT22;2975;50.956;6.962;2022-09-17T04:45:12;11.00;99.90
5899;DHT22;2975;50.956;6.962;2022-09-17T04:47:39;11.00;99.90
5899;DHT22;2975;50.956;6.962;2022-09-17T04:50:05;11.00;99.90
5899;DHT22;2975;50.956;6.962;2022-09-17T04:52:31;11.00;99.90
5899;DHT22;2975;50.956;6.962;2022-09-17T04:54:56;10.90;99.90
5899;DHT22;2975;50.956;6.962;2022-09-17T04:57:22;10.90;99.90
5899;DHT22;2975;50.956;6.962;2022-09-17T04:59:50;10.90;99.90
5899;DHT22;2975;50.956;6.962;2022-09-17T05:02:15;10.90;99.90
5899;DHT22;2975;50.956;6.962;2022-09-17T05:04:41;10.90;99.90
5899;DHT22;2975;50.956;6.962;2022-09-17T05:07:07;10.90;99.90
5899;DHT22;2975;50.956;6.962;2022-09-17T05:09:33;10.80;99.90
5899;DHT22;2975;50.956;6.962;2022-09-17T05:12:01;10.80;99.90
5899;DHT22;2975;50.956;6.962;2022-09-17T05:14:26;10.90;99.90
5899;DHT22;2975;50.956;6.962;2022-09-17T05:16:52;10.80;99.90
5899;DHT22;2975;50.956;6.962;2022-09-17T05:19:17;10.80;99.90
5899;DHT22;2975;50.956;6.962;2022-09-17T05:21:43;10.70;99.90
5899;DHT22;2975;50.956;6.962;2022-09-17T05:24:08;10.70;99.90
5899;DHT22;2975;50.956;6.962;2022-09-17T05:26:36;10.70;99.90
5899;DHT22;2975;50.956;6.962;2022-09-17T05:29:02;10.70;99.90
5899;DHT22;2975;50.956;6.962;2022-09-17T05:31:29;10.70;99.90
5899;DHT22;2975;50.956;6.962;2022-09-17T05:33:57;10.70;99.90
5899;DHT22;2975;50.956;6.962;2022-09-17T05:36:22;10.80;99.90
5899;DHT22;2975;50.956;6.962;2022-09-17T05:38:48;10.80;99.90
5899;DHT22;2975;50.956;6.962;2022-09-17T05:41:13;10.80;99.90
5899;DHT22;2975;50.956;6.962;2022-09-17T05:43:39;10.80;99.90
5899;DHT22;2975;50.956;6.962;2022-09-17T05:46:06;10.80;99.90
5899;DHT22;2975;50.956;6.962;2022-09-17T05:48:32;10.80;99.90
5899;DHT22;2975;50.956;6.962;2022-09-17T05:50:58;10.90;99.90
5899;DHT22;2975;50.956;6.962;2022-09-17T05:53:23;10.90;99.90
5899;DHT22;2975;50.956;6.962;2022-09-17T05:55:49;10.90;99.90
5899;DHT22;2975;50.956;6.962;2022-09-17T05:58:17;10.90;99.90
5899;DHT22;2975;50.956;6.962;2022-09-17T06:00:44;11.00;99.90
5899;DHT22;2975;50.956;6.962;2022-09-17T06:03:12;11.20;99.90
5899;DHT22;2975;50.956;6.962;2022-09-17T06:05:37;11.40;99.90
5899;DHT22;2975;50.956;6.962;2022-09-17T06:08:03;11.50;99.90
5899;DHT22;2975;50.956;6.962;2022-09-17T06:10:30;11.50;99.90
5899;DHT22;2975;50.956;6.962;2022-09-17T06:12:57;11.40;99.90
5899;DHT22;2975;50.956;6.962;2022-09-17T06:15:23;11.60;99.90
5899;DHT22;2975;50.956;6.962;2022-09-17T06:17:49;11.70;99.90
5899;DHT22;2975;50.956;6.962;2022-09-17T06:20:15;11.90;99.90
5899;DHT22;2975;50.956;6.962;2022-09-17T06:22:41;12.00;99.90
5899;DHT22;2975;50.956;6.962;2022-09-17T06:25:07;12.10;99.90
5899;DHT22;2975;50.956;6.962;2022-09-17T06:27:34;12.20;99.90
5899;DHT22;2975;50.956;6.962;2022-09-17T06:30:00;12.40;99.90
5899;DHT22;2975;50.956;6.962;2022-09-17T06:32:26;12.50;99.90
5899;DHT22;2975;50.956;6.962;2022-09-17T06:34:52;12.70;99.90
5899;DHT22;2975;50.956;6.962;2022-09-17T06:37:25;12.90;99.90
5899;DHT22;2975;50.956;6.962;2022-09-17T06:39:51;13.00;99.90
5899;DHT22;2975;50.956;6.962;2022-09-17T06:42:17;13.00;99.90
5899;DHT22;2975;50.956;6.962;2022-09-17T06:44:42;13.00;99.90
5899;DHT22;2975;50.956;6.962;2022-09-17T06:47:08;13.00;99.90
5899;DHT22;2975;50.956;6.962;2022-09-17T06:49:33;12.80;99.90
5899;DHT22;2975;50.956;6.962;2022-09-17T06:51:59;12.60;99.90
5899;DHT22;2975;50.956;6.962;2022-09-17T06:54:25;12.50;99.90
5899;DHT22;2975;50.956;6.962;2022-09-17T06:56:50;12.50;99.90
5899;DHT22;2975;50.956;6.962;2022-09-17T06:59:16;12.40;99.90
5899;DHT22;2975;50.956;6.962;2022-09-17T07:01:43;12.40;99.90
5899;DHT22;2975;50.956;6.962;2022-09-17T07:04:08;12.30;99.90
5899;DHT22;2975;50.956;6.962;2022-09-17T07:06:34;12.20;99.90
5899;DHT22;2975;50.956;6.962;2022-09-17T07:09:00;12.20;99.90
5899;DHT22;2975;50.956;6.962;2022-09-17T07:11:26;12.10;99.90
5899;DHT22;2975;50.956;6.962;2022-09-17T07:13:53;12.20;99.90
5899;DHT22;2975;50.956;6.962;2022-09-17T07:16:20;12.30;99.90
5899;DHT22;2975;50.956;6.962;2022-09-17T07:18:46;12.30;99.90
5899;DHT22;2975;50.956;6.962;2022-09-17T07:21:11;12.50;99.90
5899;DHT22;2975;50.956;6.962;2022-09-17T07:23:37;12.60;99.90
5899;DHT22;2975;50.956;6.962;2022-09-17T07:26:09;12.90;99.90
5899;DHT22;2975;50.956;6.962;2022-09-17T07:28:38;13.10;99.90
5899;DHT22;2975;50.956;6.962;2022-09-17T07:31:04;13.30;99.90
5899;DHT22;2975;50.956;6.962;2022-09-17T07:33:30;13.50;99.90
5899;DHT22;2975;50.956;6.962;2022-09-17T07:36:00;13.40;99.90
5899;DHT22;2975;50.956;6.962;2022-09-17T07:38:27;13.40;99.90
5899;DHT22;2975;50.956;6.962;2022-09-17T07:43:28;13.20;99.90
5899;DHT22;2975;50.956;6.962;2022-09-17T07:45:56;13.40;99.90
5899;DHT22;2975;50.956;6.962;2022-09-17T07:48:22;13.60;99.90
5899;DHT22;2975;50.956;6.962;2022-09-17T07:50:48;13.70;99.90
5899;DHT22;2975;50.956;6.962;2022-09-17T07:53:14;13.70;99.90
5899;DHT22;2975;50.956;6.962;2022-09-17T07:55:40;13.70;99.90
5899;DHT22;2975;50.956;6.962;2022-09-17T07:58:05;13.60;99.90
5899;DHT22;2975;50.956;6.962;2022-09-17T08:00:31;13.60;99.90
5899;DHT22;2975;50.956;6.962;2022-09-17T08:02:57;13.40;99.90
5899;DHT22;2975;50.956;6.962;2022-09-17T08:05:23;13.40;99.90
5899;DHT22;2975;50.956;6.962;2022-09-17T08:07:53;13.50;99.90
5899;DHT22;2975;50.956;6.962;2022-09-17T08:10:21;13.40;99.90
5899;DHT22;2975;50.956;6.962;2022-09-17T08:12:55;13.50;99.90
5899;DHT22;2975;50.956;6.962;2022-09-17T08:15:22;13.50;99.90
5899;DHT22;2975;50.956;6.962;2022-09-17T08:17:49;13.40;99.90
5899;DHT22;2975;50.956;6.962;2022-09-17T08:20:15;13.60;99.90
5899;DHT22;2975;50.956;6.962;2022-09-17T08:22:41;14.00;99.90
5899;DHT22;2975;50.956;6.962;2022-09-17T08:25:09;14.30;99.90
5899;DHT22;2975;50.956;6.962;2022-09-17T08:27:35;14.50;99.90
5899;DHT22;2975;50.956;6.962;2022-09-17T08:30:02;14.80;99.80
5899;DHT22;2975;50.956;6.962;2022-09-17T08:32:29;14.90;99.30
5899;DHT22;2975;50.956;6.962;2022-09-17T08:34:55;14.80;98.70
5899;DHT22;2975;50.956;6.962;2022-09-17T08:37:20;14.90;99.00
5899;DHT22;2975;50.956;6.962;2022-09-17T08:39:46;14.70;98.60
5899;DHT22;2975;50.956;6.962;2022-09-17T08:42:28;14.50;99.30
5899;DHT22;2975;50.956;6.962;2022-09-17T08:44:56;14.50;99.30
5899;DHT22;2975;50.956;6.962;2022-09-17T08:47:28;14.40;99.30
5899;DHT22;2975;50.956;6.962;2022-09-17T08:50:01;14.30;99.50
5899;DHT22;2975;50.956;6.962;2022-09-17T09:01:33;14.50;99.20
5899;DHT22;2975;50.956;6.962;2022-09-17T09:04:22;14.50;98.80
5899;DHT22;2975;50.956;6.962;2022-09-17T09:07:12;14.40;99.20
5899;DHT22;2975;50.956;6.962;2022-09-17T09:10:01;14.40;99.00
5899;DHT22;2975;50.956;6.962;2022-09-17T09:12:32;14.70;99.10
5899;DHT22;2975;50.956;6.962;2022-09-17T09:15:16;14.90;98.30
5899;DHT22;2975;50.956;6.962;2022-09-17T09:17:45;15.30;98.20
5899;DHT22;2975;50.956;6.962;2022-09-17T09:20:17;15.50;97.80
5899;DHT22;2975;50.956;6.962;2022-09-17T09:22:51;15.60;97.30
5899;DHT22;2975;50.956;6.962;2022-09-17T09:25:25;15.60;97.80
5899;DHT22;2975;50.956;6.962;2022-09-17T09:33:45;15.40;96.60
5899;DHT22;2975;50.956;6.962;2022-09-17T09:36:14;15.50;95.90
5899;DHT22;2975;50.956;6.962;2022-09-17T09:38:45;15.40;95.30
5899;DHT22;2975;50.956;6.962;2022-09-17T09:41:44;15.40;96.60
5899;DHT22;2975;50.956;6.962;2022-09-17T09:44:13;15.50;96.90
5899;DHT22;2975;50.956;6.962;2022-09-17T09:47:06;15.50;96.50
5899;DHT22;2975;50.956;6.962;2022-09-17T09:57:51;15.60;95.80
5899;DHT22;2975;50.956;6.962;2022-09-17T10:00:35;15.70;95.70
5899;DHT22;2975;50.956;6.962;2022-09-17T10:03:18;15.60;95.40
5899;DHT22;2975;50.956;6.962;2022-09-17T10:06:07;15.40;95.50
5899;DHT22;2975;50.956;6.962;2022-09-17T10:08:35;15.40;95.70
5899;DHT22;2975;50.956;6.962;2022-09-17T10:13:38;15.30;95.30
5899;DHT22;2975;50.956;6.962;2022-09-17T10:16:22;15.20;94.80
5899;DHT22;2975;50.956;6.962;2022-09-17T10:21:34;15.30;93.70
5899;DHT22;2975;50.956;6.962;2022-09-17T10:24:02;15.20;94.10
5899;DHT22;2975;50.956;6.962;2022-09-17T10:26:34;15.40;94.50
5899;DHT22;2975;50.956;6.962;2022-09-17T10:29:18;15.70;93.80
5899;DHT22;2975;50.956;6.962;2022-09-17T10:31:50;16.10;93.50
5899;DHT22;2975;50.956;6.962;2022-09-17T10:34:23;16.30;92.90
5899;DHT22;2975;50.956;6.962;2022-09-17T10:36:49;16.50;92.00
5899;DHT22;2975;50.956;6.962;2022-09-17T10:39:35;16.70;91.30
5899;DHT22;2975;50.956;6.962;2022-09-17T10:42:04;16.60;90.70
5899;DHT22;2975;50.956;6.962;2022-09-17T10:44:35;16.50;91.60
5899;DHT22;2975;50.956;6.962;2022-09-17T10:47:13;16.50;90.80
5899;DHT22;2975;50.956;6.962;2022-09-17T10:50:15;16.20;90.60
5899;DHT22;2975;50.956;6.962;2022-09-17T10:52:50;16.40;90.90
5899;DHT22;2975;50.956;6.962;2022-09-17T10:55:30;16.40;90.60
5899;DHT22;2975;50.956;6.962;2022-09-17T11:03:52;15.90;92.50
5899;DHT22;2975;50.956;6.962;2022-09-17T11:17:50;16.20;94.40
5899;DHT22;2975;50.956;6.962;2022-09-17T11:29:19;16.20;93.20
5899;DHT22;2975;50.956;6.962;2022-09-17T11:31:54;16.30;93.20
5899;DHT22;2975;50.956;6.962;2022-09-17T11:37:27;16.20;92.80
5899;DHT22;2975;50.956;6.962;2022-09-17T11:40:11;16.30;93.10
5899;DHT22;2975;50.956;6.962;2022-09-17T11:45:17;16.30;93.00
5899;DHT22;2975;50.956;6.962;2022-09-17T11:47:50;16.50;93.30
5899;DHT22;2975;50.956;6.962;2022-09-17T11:50:55;16.50;93.10
5899;DHT22;2975;50.956;6.962;2022-09-17T11:55:52;15.40;95.20
5899;DHT22;2975;50.956;6.962;2022-09-17T11:58:49;15.00;96.20
5899;DHT22;2975;50.956;6.962;2022-09-17T12:01:18;14.70;98.00
5899;DHT22;2975;50.956;6.962;2022-09-17T12:03:54;14.60;99.90
5899;DHT22;2975;50.956;6.962;2022-09-17T12:06:29;14.60;99.90
5899;DHT22;2975;50.956;6.962;2022-09-17T12:09:15;14.50;99.90
5899;DHT22;2975;50.956;6.962;2022-09-17T12:11:51;14.20;99.90
5899;DHT22;2975;50.956;6.962;2022-09-17T12:14:28;14.00;99.90
5899;DHT22;2975;50.956;6.962;2022-09-17T12:16:59;13.80;99.90
5899;DHT22;2975;50.956;6.962;2022-09-17T12:19:46;14.00;99.90
5899;DHT22;2975;50.956;6.962;2022-09-17T12:22:15;14.20;99.90
5899;DHT22;2975;50.956;6.962;2022-09-17T12:24:42;14.40;99.90
5899;DHT22;2975;50.956;6.962;2022-09-17T12:30:14;14.50;99.90
5899;DHT22;2975;50.956;6.962;2022-09-17T12:48:48;14.90;98.90
5899;DHT22;2975;50.956;6.962;2022-09-17T12:57:12;15.70;97.30
5899;DHT22;2975;50.956;6.962;2022-09-17T12:59:52;15.60;96.40
5899;DHT22;2975;50.956;6.962;2022-09-17T13:02:38;15.50;97.20
5899;DHT22;2975;50.956;6.962;2022-09-17T13:13:53;14.90;99.90
5899;DHT22;2975;50.956;6.962;2022-09-17T13:16:35;13.90;99.90
5899;DHT22;2975;50.956;6.962;2022-09-17T13:19:10;13.00;99.90
5899;DHT22;2975;50.956;6.962;2022-09-17T13:24:22;11.80;99.90
5899;DHT22;2975;50.956;6.962;2022-09-17T13:26:51;11.30;99.90
5899;DHT22;2975;50.956;6.962;2022-09-17T13:38:00;10.60;99.90
5899;DHT22;2975;50.956;6.962;2022-09-17T13:40:32;10.60;99.90
5899;DHT22;2975;50.956;6.962;2022-09-17T13:43:10;10.60;99.90
5899;DHT22;2975;50.956;6.962;2022-09-17T13:48:27;10.50;99.90
5899;DHT22;2975;50.956;6.962;2022-09-17T13:50:54;10.60;99.90
5899;DHT22;2975;50.956;6.962;2022-09-17T13:53:26;10.80;99.90
5899;DHT22;2975;50.956;6.962;2022-09-17T13:55:56;11.00;99.90
5899;DHT22;2975;50.956;6.962;2022-09-17T13:58:30;11.10;99.90
5899;DHT22;2975;50.956;6.962;2022-09-17T14:01:02;11.10;99.90
5899;DHT22;2975;50.956;6.962;2022-09-17T14:21:34;11.70;99.90
5899;DHT22;2975;50.956;6.962;2022-09-17T14:24:02;11.90;99.90
5899;DHT22;2975;50.956;6.962;2022-09-17T14:29:39;12.20;99.90
5899;DHT22;2975;50.956;6.962;2022-09-17T14:32:16;12.40;99.90
5899;DHT22;2975;50.956;6.962;2022-09-17T14:34:45;12.60;99.90
5899;DHT22;2975;50.956;6.962;2022-09-17T14:37:14;12.80;99.90
5899;DHT22;2975;50.956;6.962;2022-09-17T14:39:41;12.90;99.90
5899;DHT22;2975;50.956;6.962;2022-09-17T14:42:14;12.80;99.90
5899;DHT22;2975;50.956;6.962;2022-09-17T14:44:57;12.50;99.90
5899;DHT22;2975;50.956;6.962;2022-09-17T14:47:24;12.30;99.90
5899;DHT22;2975;50.956;6.962;2022-09-17T14:49:51;12.30;99.90
5899;DHT22;2975;50.956;6.962;2022-09-17T14:52:28;12.30;99.90
5899;DHT22;2975;50.956;6.962;2022-09-17T14:55:17;12.50;99.90
5899;DHT22;2975;50.956;6.962;2022-09-17T14:57:46;12.80;99.90
5899;DHT22;2975;50.956;6.962;2022-09-17T15:00:24;13.00;99.90
5899;DHT22;2975;50.956;6.962;2022-09-17T15:02:52;13.20;99.90
5899;DHT22;2975;50.956;6.962;2022-09-17T15:05:25;13.00;99.90
5899;DHT22;2975;50.956;6.962;2022-09-17T15:08:10;13.00;99.90
5899;DHT22;2975;50.956;6.962;2022-09-17T15:11:04;13.00;99.90
5899;DHT22;2975;50.956;6.962;2022-09-17T15:13:41;13.10;99.90
5899;DHT22;2975;50.956;6.962;2022-09-17T15:16:22;13.00;99.90
5899;DHT22;2975;50.956;6.962;2022-09-17T15:18:53;12.80;99.90
5899;DHT22;2975;50.956;6.962;2022-09-17T15:23:48;12.80;99.90
5899;DHT22;2975;50.956;6.962;2022-09-17T15:26:17;12.60;99.90
5899;DHT22;2975;50.956;6.962;2022-09-17T15:28:45;12.50;99.90
5899;DHT22;2975;50.956;6.962;2022-09-17T15:31:16;12.40;99.90
5899;DHT22;2975;50.956;6.962;2022-09-17T15:33:43;12.20;99.90
5899;DHT22;2975;50.956;6.962;2022-09-17T15:36:25;12.00;99.90
5899;DHT22;2975;50.956;6.962;2022-09-17T15:38:52;11.90;99.90
5899;DHT22;2975;50.956;6.962;2022-09-17T15:41:34;11.80;99.90
5899;DHT22;2975;50.956;6.962;2022-09-17T15:44:13;12.00;99.90
5899;DHT22;2975;50.956;6.962;2022-09-17T15:46:40;12.10;99.90
5899;DHT22;2975;50.956;6.962;2022-09-17T15:51:51;12.50;99.90
5899;DHT22;2975;50.956;6.962;2022-09-17T15:54:29;12.60;99.90
5899;DHT22;2975;50.956;6.962;2022-09-17T15:56:58;12.70;99.90
5899;DHT22;2975;50.956;6.962;2022-09-17T15:59:30;12.90;99.90
5899;DHT22;2975;50.956;6.962;2022-09-17T16:01:59;13.00;99.90
5899;DHT22;2975;50.956;6.962;2022-09-17T16:04:33;13.20;99.90
5899;DHT22;2975;50.956;6.962;2022-09-17T16:09:46;13.30;99.90
5899;DHT22;2975;50.956;6.962;2022-09-17T16:12:25;13.20;99.90
5899;DHT22;2975;50.956;6.962;2022-09-17T16:14:58;13.10;99.90
5899;DHT22;2975;50.956;6.962;2022-09-17T16:22:38;13.00;99.90
5899;DHT22;2975;50.956;6.962;2022-09-17T16:25:04;13.00;99.90
5899;DHT22;2975;50.956;6.962;2022-09-17T16:27:36;13.10;99.90
5899;DHT22;2975;50.956;6.962;2022-09-17T16:30:05;13.00;99.90
5899;DHT22;2975;50.956;6.962;2022-09-17T16:32:33;12.90;99.90
5899;DHT22;2975;50.956;6.962;2022-09-17T16:34:59;12.90;99.90
5899;DHT22;2975;50.956;6.962;2022-09-17T16:37:25;13.00;99.90
5899;DHT22;2975;50.956;6.962;2022-09-17T16:39:50;13.00;99.90
5899;DHT22;2975;50.956;6.962;2022-09-17T16:42:17;13.10;99.90
5899;DHT22;2975;50.956;6.962;2022-09-17T16:44:43;13.10;99.90
5899;DHT22;2975;50.956;6.962;2022-09-17T16:47:08;13.10;99.90
5899;DHT22;2975;50.956;6.962;2022-09-17T16:49:34;13.10;99.90
5899;DHT22;2975;50.956;6.962;2022-09-17T16:52:00;13.10;99.90
5899;DHT22;2975;50.956;6.962;2022-09-17T16:54:26;13.10;99.90
5899;DHT22;2975;50.956;6.962;2022-09-17T16:56:51;13.10;99.90
5899;DHT22;2975;50.956;6.962;2022-09-17T16:59:18;13.00;99.90
5899;DHT22;2975;50.956;6.962;2022-09-17T17:01:43;12.90;99.90
5899;DHT22;2975;50.956;6.962;2022-09-17T17:04:09;12.90;99.90
5899;DHT22;2975;50.956;6.962;2022-09-17T17:06:35;12.80;99.90
5899;DHT22;2975;50.956;6.962;2022-09-17T17:09:01;12.70;99.90
5899;DHT22;2975;50.956;6.962;2022-09-17T17:11:27;12.70;99.90
5899;DHT22;2975;50.956;6.962;2022-09-17T17:13:54;12.70;99.90
5899;DHT22;2975;50.956;6.962;2022-09-17T17:16:22;12.60;99.90
5899;DHT22;2975;50.956;6.962;2022-09-17T17:18:49;12.50;99.90
5899;DHT22;2975;50.956;6.962;2022-09-17T17:21:18;12.50;99.90
5899;DHT22;2975;50.956;6.962;2022-09-17T17:23:44;12.40;99.90
5899;DHT22;2975;50.956;6.962;2022-09-17T17:26:12;12.40;99.90
5899;DHT22;2975;50.956;6.962;2022-09-17T17:28:38;12.30;99.90
5899;DHT22;2975;50.956;6.962;2022-09-17T17:31:04;12.20;99.90
5899;DHT22;2975;50.956;6.962;2022-09-17T17:33:30;12.10;99.90
5899;DHT22;2975;50.956;6.962;2022-09-17T17:35:59;12.10;99.90
5899;DHT22;2975;50.956;6.962;2022-09-17T17:38:25;12.10;99.90
5899;DHT22;2975;50.956;6.962;2022-09-17T17:41:02;12.00;99.90
5899;DHT22;2975;50.956;6.962;2022-09-17T17:43:28;12.00;99.90
5899;DHT22;2975;50.956;6.962;2022-09-17T17:45:53;11.90;99.90
5899;DHT22;2975;50.956;6.962;2022-09-17T17:48:19;11.80;99.90
5899;DHT22;2975;50.956;6.962;2022-09-17T17:50:45;11.70;99.90
5899;DHT22;2975;50.956;6.962;2022-09-17T17:53:10;11.60;99.90
5899;DHT22;2975;50.956;6.962;2022-09-17T17:55:36;11.60;99.90
5899;DHT22;2975;50.956;6.962;2022-09-17T17:58:02;11.60;99.90
5899;DHT22;2975;50.956;6.962;2022-09-17T18:00:27;11.60;99.90
5899;DHT22;2975;50.956;6.962;2022-09-17T18:02:53;11.60;99.90
5899;DHT22;2975;50.956;6.962;2022-09-17T18:05:20;11.60;99.90
5899;DHT22;2975;50.956;6.962;2022-09-17T18:07:46;11.60;99.90
5899;DHT22;2975;50.956;6.962;2022-09-17T18:10:12;11.60;99.90
5899;DHT22;2975;50.956;6.962;2022-09-17T18:12:38;11.50;99.90
5899;DHT22;2975;50.956;6.962;2022-09-17T18:15:05;11.50;99.90
5899;DHT22;2975;50.956;6.962;2022-09-17T18:17:31;11.40;99.90
5899;DHT22;2975;50.956;6.962;2022-09-17T18:19:57;11.40;99.90
5899;DHT22;2975;50.956;6.962;2022-09-17T18:22:23;11.40;99.90
5899;DHT22;2975;50.956;6.962;2022-09-17T18:24:48;11.40;99.90
5899;DHT22;2975;50.956;6.962;2022-09-17T18:27:14;11.40;99.90
5899;DHT22;2975;50.956;6.962;2022-09-17T18:29:40;11.40;99.90
5899;DHT22;2975;50.956;6.962;2022-09-17T18:32:05;11.40;99.90
5899;DHT22;2975;50.956;6.962;2022-09-17T18:34:31;11.50;99.90
5899;DHT22;2975;50.956;6.962;2022-09-17T18:36:57;11.60;99.90
5899;DHT22;2975;50.956;6.962;2022-09-17T18:39:22;11.60;99.90
5899;DHT22;2975;50.956;6.962;2022-09-17T18:41:48;11.60;99.90
5899;DHT22;2975;50.956;6.962;2022-09-17T18:44:14;11.70;99.90
5899;DHT22;2975;50.956;6.962;2022-09-17T18:46:40;11.70;99.90
5899;DHT22;2975;50.956;6.962;2022-09-17T18:49:07;11.60;99.90
5899;DHT22;2975;50.956;6.962;2022-09-17T18:51:32;11.50;99.90
5899;DHT22;2975;50.956;6.962;2022-09-17T18:53:58;11.40;99.90
5899;DHT22;2975;50.956;6.962;2022-09-17T18:56:27;11.30;99.90
5899;DHT22;2975;50.956;6.962;2022-09-17T18:58:55;11.30;99.90
5899;DHT22;2975;50.956;6.962;2022-09-17T19:01:24;11.30;99.90
5899;DHT22;2975;50.956;6.962;2022-09-17T19:03:49;11.30;99.90
5899;DHT22;2975;50.956;6.962;2022-09-17T19:06:16;11.40;99.90
5899;DHT22;2975;50.956;6.962;2022-09-17T19:08:43;11.50;99.90
5899;DHT22;2975;50.956;6.962;2022-09-17T19:11:09;11.50;99.90
5899;DHT22;2975;50.956;6.962;2022-09-17T19:13:40;11.60;99.90
5899;DHT22;2975;50.956;6.962;2022-09-17T19:16:08;11.60;99.90
5899;DHT22;2975;50.956;6.962;2022-09-17T19:18:34;11.60;99.90
5899;DHT22;2975;50.956;6.962;2022-09-17T19:21:05;11.60;99.90
5899;DHT22;2975;50.956;6.962;2022-09-17T19:23:31;11.60;99.90
5899;DHT22;2975;50.956;6.962;2022-09-17T19:26:08;11.60;99.90
5899;DHT22;2975;50.956;6.962;2022-09-17T19:28:34;11.70;99.90
5899;DHT22;2975;50.956;6.962;2022-09-17T19:31:08;11.70;99.90
5899;DHT22;2975;50.956;6.962;2022-09-17T19:33:34;11.70;99.90
5899;DHT22;2975;50.956;6.962;2022-09-17T19:36:08;11.70;99.90